Página principal
METAR-TAF:

METAR-TAF

Aeroportos :

Quebec, Quebec, Canadá

latitude: 46-48N, longitude: 071-23W, altura: 70 m

Observação actual do tempo

O boletim foi feito há 35 minutos, às 13:00 UTC
Vento 7 kt de nor-noroeste, variando entre oes-noroeste e nordeste
Temperatura 5°C
Humidade 48%
Pressão 1024 hPa
Visibilidade: 48.3 km
Poucas nuvensa uma altura de 4000 ft
Poucas nuvensa uma altura de 14000 ft

METAR: CYQB 211300Z 34007KT 290V040 30SM FEW040 FEW140 05/M05 A3025 RMK CU2AC1 AC TR SLP247

Hora: 09:35 (13:35 UTC)

Previsão

O boletim foi feito há 1 hora e 57 minutos, às 11:38 UTC
Previsão válida de 21 às 12 UTC a 22 às 12 UTC
Vento 3 kt com direcção variável
Visibilidade: 10 km
Nuvens dispersasa uma altura de 6000 ft
Tornando-se
de 21 às 12 UTC a 21 às 14 UTC
Vento 10 kt de oes-noroeste
Tornando-se
de 21 às 22 UTC a 21 às 24 UTC
Vento 5 kt de oes-noroeste

TAF: CYQB 211138Z 2112/2212 VRB03KT P6SM SCT060 BECMG 2112/2114 30010KT BECMG 2122/2124 30005KT RMK NXT FCST BY 211800Z

Observações e previsões do tempo de mais de 4000 aeroportos (mensagens METAR e TAF).

As estações disponíveis são os pontos amarelos e vermelhos sobre o mapa.

Mova o rato sobre o mapa para ver o nome da estação.

Depois clique no ponto para visualizar as observações e previsões meteorológicas.

Para alterar o mapa : clique nos botões verdes com uma cruz preta para aumentar o zoom; no botão verde com uma pitada de zoom; ou nas setas verdes para mapas adjacentes.


METAR-TAF: